sensor_id;sensor_type;location;lat;lon;timestamp;temperature;humidity
69492;DHT22;56692;52.016;4.356;2023-04-06T00:01:54;15.10;43.20
69492;DHT22;56692;52.016;4.356;2023-04-06T00:04:20;15.10;43.10
69492;DHT22;56692;52.016;4.356;2023-04-06T00:06:46;15.10;43.30
69492;DHT22;56692;52.016;4.356;2023-04-06T00:09:12;15.10;43.10
69492;DHT22;56692;52.016;4.356;2023-04-06T00:11:37;15.00;43.20
69492;DHT22;56692;52.016;4.356;2023-04-06T00:14:03;15.00;43.30
69492;DHT22;56692;52.016;4.356;2023-04-06T00:16:29;15.00;43.20
69492;DHT22;56692;52.016;4.356;2023-04-06T00:18:55;15.00;43.20
69492;DHT22;56692;52.016;4.356;2023-04-06T00:21:20;15.00;43.10
69492;DHT22;56692;52.016;4.356;2023-04-06T00:23:46;15.00;43.10
69492;DHT22;56692;52.016;4.356;2023-04-06T00:26:12;15.00;43.10
69492;DHT22;56692;52.016;4.356;2023-04-06T00:28:38;15.00;43.00
69492;DHT22;56692;52.016;4.356;2023-04-06T00:31:03;15.00;43.00
69492;DHT22;56692;52.016;4.356;2023-04-06T00:33:29;15.00;43.00
69492;DHT22;56692;52.016;4.356;2023-04-06T00:35:55;15.00;42.90
69492;DHT22;56692;52.016;4.356;2023-04-06T00:38:21;14.90;42.90
69492;DHT22;56692;52.016;4.356;2023-04-06T00:40:47;14.90;43.00
69492;DHT22;56692;52.016;4.356;2023-04-06T00:43:13;14.90;42.60
69492;DHT22;56692;52.016;4.356;2023-04-06T00:45:40;14.90;42.90
69492;DHT22;56692;52.016;4.356;2023-04-06T00:48:07;14.90;42.80
69492;DHT22;56692;52.016;4.356;2023-04-06T00:50:34;14.90;42.60
69492;DHT22;56692;52.016;4.356;2023-04-06T00:53:00;14.90;42.60
69492;DHT22;56692;52.016;4.356;2023-04-06T00:55:29;14.90;42.50
69492;DHT22;56692;52.016;4.356;2023-04-06T00:57:57;14.90;42.50
69492;DHT22;56692;52.016;4.356;2023-04-06T01:00:24;14.90;42.40
69492;DHT22;56692;52.016;4.356;2023-04-06T01:02:49;14.90;42.30
69492;DHT22;56692;52.016;4.356;2023-04-06T01:05:15;14.80;42.50
69492;DHT22;56692;52.016;4.356;2023-04-06T01:07:41;14.80;42.40
69492;DHT22;56692;52.016;4.356;2023-04-06T01:10:07;14.80;42.30
69492;DHT22;56692;52.016;4.356;2023-04-06T01:12:33;14.80;42.10
69492;DHT22;56692;52.016;4.356;2023-04-06T01:14:59;14.80;42.20
69492;DHT22;56692;52.016;4.356;2023-04-06T01:17:25;14.80;42.20
69492;DHT22;56692;52.016;4.356;2023-04-06T01:19:51;14.80;42.00
69492;DHT22;56692;52.016;4.356;2023-04-06T01:22:19;14.80;42.10
69492;DHT22;56692;52.016;4.356;2023-04-06T01:24:45;14.80;42.10
69492;DHT22;56692;52.016;4.356;2023-04-06T01:27:12;14.70;42.00
69492;DHT22;56692;52.016;4.356;2023-04-06T01:29:39;14.70;41.90
69492;DHT22;56692;52.016;4.356;2023-04-06T01:32:07;14.70;41.90
69492;DHT22;56692;52.016;4.356;2023-04-06T01:34:33;14.70;41.90
69492;DHT22;56692;52.016;4.356;2023-04-06T01:36:58;14.70;41.80
69492;DHT22;56692;52.016;4.356;2023-04-06T01:39:24;14.70;41.70
69492;DHT22;56692;52.016;4.356;2023-04-06T01:41:50;14.70;41.60
69492;DHT22;56692;52.016;4.356;2023-04-06T01:44:17;14.70;41.80
69492;DHT22;56692;52.016;4.356;2023-04-06T01:46:43;14.70;41.50
69492;DHT22;56692;52.016;4.356;2023-04-06T01:49:09;14.70;41.40
69492;DHT22;56692;52.016;4.356;2023-04-06T01:51:35;14.60;41.60
69492;DHT22;56692;52.016;4.356;2023-04-06T01:54:01;14.60;41.60
69492;DHT22;56692;52.016;4.356;2023-04-06T01:56:26;14.60;41.60
69492;DHT22;56692;52.016;4.356;2023-04-06T01:58:52;14.60;41.60
69492;DHT22;56692;52.016;4.356;2023-04-06T02:01:18;14.60;41.50
69492;DHT22;56692;52.016;4.356;2023-04-06T02:03:43;14.60;41.40
69492;DHT22;56692;52.016;4.356;2023-04-06T02:06:09;14.60;41.60
69492;DHT22;56692;52.016;4.356;2023-04-06T02:08:35;14.60;41.40
69492;DHT22;56692;52.016;4.356;2023-04-06T02:11:01;14.60;41.50
69492;DHT22;56692;52.016;4.356;2023-04-06T02:13:26;14.60;41.40
69492;DHT22;56692;52.016;4.356;2023-04-06T02:15:52;14.60;41.50
69492;DHT22;56692;52.016;4.356;2023-04-06T02:18:18;14.60;41.50
69492;DHT22;56692;52.016;4.356;2023-04-06T02:20:44;14.60;41.50
69492;DHT22;56692;52.016;4.356;2023-04-06T02:23:10;14.50;41.40
69492;DHT22;56692;52.016;4.356;2023-04-06T02:25:35;14.50;41.50
69492;DHT22;56692;52.016;4.356;2023-04-06T02:28:01;14.50;41.40
69492;DHT22;56692;52.016;4.356;2023-04-06T02:30:27;14.60;41.30
69492;DHT22;56692;52.016;4.356;2023-04-06T02:32:54;14.50;41.40
69492;DHT22;56692;52.016;4.356;2023-04-06T02:35:20;14.50;41.40
69492;DHT22;56692;52.016;4.356;2023-04-06T02:37:45;14.50;41.40
69492;DHT22;56692;52.016;4.356;2023-04-06T02:40:13;14.50;41.30
69492;DHT22;56692;52.016;4.356;2023-04-06T02:42:39;14.50;41.50
69492;DHT22;56692;52.016;4.356;2023-04-06T02:45:05;14.50;41.40
69492;DHT22;56692;52.016;4.356;2023-04-06T02:47:31;14.50;41.40
69492;DHT22;56692;52.016;4.356;2023-04-06T02:49:57;14.50;41.40
69492;DHT22;56692;52.016;4.356;2023-04-06T02:52:22;14.50;41.50
69492;DHT22;56692;52.016;4.356;2023-04-06T02:54:48;14.50;41.40
69492;DHT22;56692;52.016;4.356;2023-04-06T02:57:14;14.50;41.50
69492;DHT22;56692;52.016;4.356;2023-04-06T02:59:39;14.50;41.40
69492;DHT22;56692;52.016;4.356;2023-04-06T03:02:05;14.50;41.50
69492;DHT22;56692;52.016;4.356;2023-04-06T03:04:31;14.50;41.50
69492;DHT22;56692;52.016;4.356;2023-04-06T03:06:56;14.40;41.50
69492;DHT22;56692;52.016;4.356;2023-04-06T03:09:22;14.40;41.60
69492;DHT22;56692;52.016;4.356;2023-04-06T03:11:48;14.40;41.60
69492;DHT22;56692;52.016;4.356;2023-04-06T03:14:13;14.40;41.30
69492;DHT22;56692;52.016;4.356;2023-04-06T03:16:40;14.40;41.40
69492;DHT22;56692;52.016;4.356;2023-04-06T03:19:05;14.40;41.50
69492;DHT22;56692;52.016;4.356;2023-04-06T03:21:31;14.40;41.50
69492;DHT22;56692;52.016;4.356;2023-04-06T03:23:57;14.40;41.40
69492;DHT22;56692;52.016;4.356;2023-04-06T03:26:22;14.40;41.40
69492;DHT22;56692;52.016;4.356;2023-04-06T03:28:48;14.40;41.40
69492;DHT22;56692;52.016;4.356;2023-04-06T03:31:14;14.40;41.50
69492;DHT22;56692;52.016;4.356;2023-04-06T03:33:39;14.40;41.50
69492;DHT22;56692;52.016;4.356;2023-04-06T03:36:05;14.40;41.50
69492;DHT22;56692;52.016;4.356;2023-04-06T03:38:32;14.40;41.60
69492;DHT22;56692;52.016;4.356;2023-04-06T03:40:57;14.30;41.40
69492;DHT22;56692;52.016;4.356;2023-04-06T03:43:23;14.30;41.70
69492;DHT22;56692;52.016;4.356;2023-04-06T03:45:49;14.30;41.60
69492;DHT22;56692;52.016;4.356;2023-04-06T03:48:15;14.30;41.70
69492;DHT22;56692;52.016;4.356;2023-04-06T03:50:40;14.30;41.60
69492;DHT22;56692;52.016;4.356;2023-04-06T03:53:06;14.30;41.50
69492;DHT22;56692;52.016;4.356;2023-04-06T03:55:32;14.30;41.70
69492;DHT22;56692;52.016;4.356;2023-04-06T03:57:58;14.30;41.60
69492;DHT22;56692;52.016;4.356;2023-04-06T04:00:23;14.30;41.70
69492;DHT22;56692;52.016;4.356;2023-04-06T04:02:49;14.30;41.70
69492;DHT22;56692;52.016;4.356;2023-04-06T04:05:15;14.30;41.70
69492;DHT22;56692;52.016;4.356;2023-04-06T04:07:40;14.30;41.60
69492;DHT22;56692;52.016;4.356;2023-04-06T04:10:06;14.30;41.80
69492;DHT22;56692;52.016;4.356;2023-04-06T04:12:32;14.30;41.70
69492;DHT22;56692;52.016;4.356;2023-04-06T04:14:57;14.30;41.70
69492;DHT22;56692;52.016;4.356;2023-04-06T04:17:24;14.30;41.70
69492;DHT22;56692;52.016;4.356;2023-04-06T04:19:50;14.30;41.80
69492;DHT22;56692;52.016;4.356;2023-04-06T04:22:16;14.30;41.90
69492;DHT22;56692;52.016;4.356;2023-04-06T04:24:41;14.30;41.90
69492;DHT22;56692;52.016;4.356;2023-04-06T04:27:07;14.30;41.90
69492;DHT22;56692;52.016;4.356;2023-04-06T04:29:33;14.30;41.80
69492;DHT22;56692;52.016;4.356;2023-04-06T04:31:58;14.30;42.00
69492;DHT22;56692;52.016;4.356;2023-04-06T04:34:24;14.30;42.10
69492;DHT22;56692;52.016;4.356;2023-04-06T04:36:51;14.30;42.00
69492;DHT22;56692;52.016;4.356;2023-04-06T04:39:17;14.30;42.10
69492;DHT22;56692;52.016;4.356;2023-04-06T04:41:43;14.30;42.10
69492;DHT22;56692;52.016;4.356;2023-04-06T04:44:08;14.30;42.30
69492;DHT22;56692;52.016;4.356;2023-04-06T04:46:34;14.30;42.20
69492;DHT22;56692;52.016;4.356;2023-04-06T04:49:00;14.30;42.30
69492;DHT22;56692;52.016;4.356;2023-04-06T04:51:25;14.30;42.30
69492;DHT22;56692;52.016;4.356;2023-04-06T04:53:51;14.30;42.40
69492;DHT22;56692;52.016;4.356;2023-04-06T04:56:17;14.30;42.40
69492;DHT22;56692;52.016;4.356;2023-04-06T04:58:43;14.30;42.40
69492;DHT22;56692;52.016;4.356;2023-04-06T05:01:09;14.30;42.50
69492;DHT22;56692;52.016;4.356;2023-04-06T05:03:36;14.30;42.60
69492;DHT22;56692;52.016;4.356;2023-04-06T05:06:04;14.30;42.70
69492;DHT22;56692;52.016;4.356;2023-04-06T05:08:29;14.40;42.80
69492;DHT22;56692;52.016;4.356;2023-04-06T05:10:55;14.40;42.90
69492;DHT22;56692;52.016;4.356;2023-04-06T05:13:21;14.40;42.80
69492;DHT22;56692;52.016;4.356;2023-04-06T05:15:47;14.50;43.00
69492;DHT22;56692;52.016;4.356;2023-04-06T05:18:13;14.50;43.10
69492;DHT22;56692;52.016;4.356;2023-04-06T05:20:39;14.60;42.80
69492;DHT22;56692;52.016;4.356;2023-04-06T05:23:05;14.60;43.00
69492;DHT22;56692;52.016;4.356;2023-04-06T05:25:31;14.60;43.10
69492;DHT22;56692;52.016;4.356;2023-04-06T05:27:57;14.60;43.40
69492;DHT22;56692;52.016;4.356;2023-04-06T05:30:23;14.70;43.40
69492;DHT22;56692;52.016;4.356;2023-04-06T05:32:48;14.70;43.80
69492;DHT22;56692;52.016;4.356;2023-04-06T05:35:15;14.70;43.90
69492;DHT22;56692;52.016;4.356;2023-04-06T05:37:41;14.70;44.00
69492;DHT22;56692;52.016;4.356;2023-04-06T05:40:07;14.70;44.00
69492;DHT22;56692;52.016;4.356;2023-04-06T05:42:41;14.70;44.00
69492;DHT22;56692;52.016;4.356;2023-04-06T05:45:09;14.70;44.00
69492;DHT22;56692;52.016;4.356;2023-04-06T05:47:37;14.70;44.10
69492;DHT22;56692;52.016;4.356;2023-04-06T05:50:03;14.70;44.10
69492;DHT22;56692;52.016;4.356;2023-04-06T05:52:29;14.80;44.10
69492;DHT22;56692;52.016;4.356;2023-04-06T05:54:54;14.80;44.20
69492;DHT22;56692;52.016;4.356;2023-04-06T05:57:20;14.80;44.20
69492;DHT22;56692;52.016;4.356;2023-04-06T05:59:45;14.80;44.30
69492;DHT22;56692;52.016;4.356;2023-04-06T06:02:12;14.80;44.10
69492;DHT22;56692;52.016;4.356;2023-04-06T06:04:38;14.80;44.40
69492;DHT22;56692;52.016;4.356;2023-04-06T06:07:03;14.80;44.10
69492;DHT22;56692;52.016;4.356;2023-04-06T06:09:29;14.80;44.30
69492;DHT22;56692;52.016;4.356;2023-04-06T06:11:55;14.80;44.90
69492;DHT22;56692;52.016;4.356;2023-04-06T06:14:21;14.90;45.20
69492;DHT22;56692;52.016;4.356;2023-04-06T06:16:47;14.90;45.10
69492;DHT22;56692;52.016;4.356;2023-04-06T06:19:13;14.90;44.90
69492;DHT22;56692;52.016;4.356;2023-04-06T06:21:39;14.90;45.20
69492;DHT22;56692;52.016;4.356;2023-04-06T06:24:05;14.90;45.10
69492;DHT22;56692;52.016;4.356;2023-04-06T06:26:31;14.90;45.20
69492;DHT22;56692;52.016;4.356;2023-04-06T06:28:57;14.90;45.10
69492;DHT22;56692;52.016;4.356;2023-04-06T06:31:22;14.90;45.10
69492;DHT22;56692;52.016;4.356;2023-04-06T06:33:49;14.90;45.30
69492;DHT22;56692;52.016;4.356;2023-04-06T06:36:18;14.90;45.20
69492;DHT22;56692;52.016;4.356;2023-04-06T06:38:44;14.90;45.20
69492;DHT22;56692;52.016;4.356;2023-04-06T06:41:10;14.90;45.20
69492;DHT22;56692;52.016;4.356;2023-04-06T06:43:38;14.90;45.30
69492;DHT22;56692;52.016;4.356;2023-04-06T06:46:04;14.90;45.30
69492;DHT22;56692;52.016;4.356;2023-04-06T06:48:31;14.90;45.30
69492;DHT22;56692;52.016;4.356;2023-04-06T06:50:56;14.90;45.30
69492;DHT22;56692;52.016;4.356;2023-04-06T06:53:23;14.90;45.30
69492;DHT22;56692;52.016;4.356;2023-04-06T06:55:49;14.90;45.30
69492;DHT22;56692;52.016;4.356;2023-04-06T06:58:17;14.90;45.40
69492;DHT22;56692;52.016;4.356;2023-04-06T07:00:43;14.90;45.40
69492;DHT22;56692;52.016;4.356;2023-04-06T07:03:09;14.90;45.50
69492;DHT22;56692;52.016;4.356;2023-04-06T07:05:35;14.90;45.40
69492;DHT22;56692;52.016;4.356;2023-04-06T07:08:00;14.90;45.40
69492;DHT22;56692;52.016;4.356;2023-04-06T07:10:26;14.90;45.40
69492;DHT22;56692;52.016;4.356;2023-04-06T07:12:52;14.90;45.50
69492;DHT22;56692;52.016;4.356;2023-04-06T07:15:18;14.90;45.40
69492;DHT22;56692;52.016;4.356;2023-04-06T07:17:43;14.90;45.40
69492;DHT22;56692;52.016;4.356;2023-04-06T07:20:13;15.00;45.40
69492;DHT22;56692;52.016;4.356;2023-04-06T07:22:40;14.90;45.40
69492;DHT22;56692;52.016;4.356;2023-04-06T07:25:06;14.90;45.50
69492;DHT22;56692;52.016;4.356;2023-04-06T07:27:31;15.00;45.50
69492;DHT22;56692;52.016;4.356;2023-04-06T07:29:57;15.00;45.60
69492;DHT22;56692;52.016;4.356;2023-04-06T07:32:23;15.00;45.60
69492;DHT22;56692;52.016;4.356;2023-04-06T07:34:49;15.00;45.50
69492;DHT22;56692;52.016;4.356;2023-04-06T07:37:15;15.00;45.50
69492;DHT22;56692;52.016;4.356;2023-04-06T07:39:40;15.00;45.60
69492;DHT22;56692;52.016;4.356;2023-04-06T07:42:06;15.00;45.60
69492;DHT22;56692;52.016;4.356;2023-04-06T07:44:34;15.00;45.70
69492;DHT22;56692;52.016;4.356;2023-04-06T07:46:59;15.00;45.70
69492;DHT22;56692;52.016;4.356;2023-04-06T07:49:26;15.00;45.70
69492;DHT22;56692;52.016;4.356;2023-04-06T07:51:51;15.00;45.70
69492;DHT22;56692;52.016;4.356;2023-04-06T07:54:17;15.00;45.70
69492;DHT22;56692;52.016;4.356;2023-04-06T07:56:43;15.00;45.70
69492;DHT22;56692;52.016;4.356;2023-04-06T07:59:09;15.00;45.70
69492;DHT22;56692;52.016;4.356;2023-04-06T08:01:37;15.00;45.80
69492;DHT22;56692;52.016;4.356;2023-04-06T08:04:03;15.00;45.90
69492;DHT22;56692;52.016;4.356;2023-04-06T08:06:29;15.00;45.90
69492;DHT22;56692;52.016;4.356;2023-04-06T08:08:55;15.00;45.90
69492;DHT22;56692;52.016;4.356;2023-04-06T08:11:21;15.00;45.90
69492;DHT22;56692;52.016;4.356;2023-04-06T08:13:46;15.00;46.00
69492;DHT22;56692;52.016;4.356;2023-04-06T08:16:12;15.00;46.00
69492;DHT22;56692;52.016;4.356;2023-04-06T08:18:38;15.00;45.90
69492;DHT22;56692;52.016;4.356;2023-04-06T08:21:04;15.00;46.00
69492;DHT22;56692;52.016;4.356;2023-04-06T08:23:29;15.00;46.10
69492;DHT22;56692;52.016;4.356;2023-04-06T08:25:55;15.00;46.10
69492;DHT22;56692;52.016;4.356;2023-04-06T08:28:21;15.00;46.10
69492;DHT22;56692;52.016;4.356;2023-04-06T08:30:47;15.00;46.10
69492;DHT22;56692;52.016;4.356;2023-04-06T08:33:13;15.00;46.20
69492;DHT22;56692;52.016;4.356;2023-04-06T08:35:39;15.00;46.20
69492;DHT22;56692;52.016;4.356;2023-04-06T08:38:05;15.00;46.20
69492;DHT22;56692;52.016;4.356;2023-04-06T08:40:39;15.10;46.20
69492;DHT22;56692;52.016;4.356;2023-04-06T08:43:12;15.00;46.20
69492;DHT22;56692;52.016;4.356;2023-04-06T08:45:40;15.00;46.30
69492;DHT22;56692;52.016;4.356;2023-04-06T08:48:06;15.10;46.30
69492;DHT22;56692;52.016;4.356;2023-04-06T08:50:35;15.10;46.40
69492;DHT22;56692;52.016;4.356;2023-04-06T08:53:01;15.10;46.40
69492;DHT22;56692;52.016;4.356;2023-04-06T08:55:27;15.10;46.60
69492;DHT22;56692;52.016;4.356;2023-04-06T08:57:54;15.10;46.80
69492;DHT22;56692;52.016;4.356;2023-04-06T09:00:21;15.10;46.80
69492;DHT22;56692;52.016;4.356;2023-04-06T09:02:49;15.20;47.00
69492;DHT22;56692;52.016;4.356;2023-04-06T09:05:15;15.20;47.00
69492;DHT22;56692;52.016;4.356;2023-04-06T09:07:41;15.20;46.80
69492;DHT22;56692;52.016;4.356;2023-04-06T09:10:07;15.30;46.90
69492;DHT22;56692;52.016;4.356;2023-04-06T09:12:34;15.30;47.00
69492;DHT22;56692;52.016;4.356;2023-04-06T09:15:00;15.30;47.30
69492;DHT22;56692;52.016;4.356;2023-04-06T09:17:31;15.50;47.30
69492;DHT22;56692;52.016;4.356;2023-04-06T09:19:59;15.50;47.70
69492;DHT22;56692;52.016;4.356;2023-04-06T09:22:25;15.60;47.90
69492;DHT22;56692;52.016;4.356;2023-04-06T09:25:00;15.70;48.00
69492;DHT22;56692;52.016;4.356;2023-04-06T09:27:33;15.80;48.00
69492;DHT22;56692;52.016;4.356;2023-04-06T09:30:08;15.90;47.80
69492;DHT22;56692;52.016;4.356;2023-04-06T09:32:49;15.90;47.90
69492;DHT22;56692;52.016;4.356;2023-04-06T09:35:15;16.00;47.90
69492;DHT22;56692;52.016;4.356;2023-04-06T09:37:42;16.10;48.20
69492;DHT22;56692;52.016;4.356;2023-04-06T09:40:08;16.10;48.00
69492;DHT22;56692;52.016;4.356;2023-04-06T09:42:35;16.20;47.80
69492;DHT22;56692;52.016;4.356;2023-04-06T09:45:02;16.30;47.80
69492;DHT22;56692;52.016;4.356;2023-04-06T09:47:29;16.30;48.10
69492;DHT22;56692;52.016;4.356;2023-04-06T09:49:59;16.30;48.00
69492;DHT22;56692;52.016;4.356;2023-04-06T09:52:52;16.40;47.90
69492;DHT22;56692;52.016;4.356;2023-04-06T09:55:28;16.50;47.90
69492;DHT22;56692;52.016;4.356;2023-04-06T09:58:04;16.50;48.10
69492;DHT22;56692;52.016;4.356;2023-04-06T10:00:44;16.60;47.90
69492;DHT22;56692;52.016;4.356;2023-04-06T10:06:04;16.70;47.80
69492;DHT22;56692;52.016;4.356;2023-04-06T10:08:30;16.70;48.10
69492;DHT22;56692;52.016;4.356;2023-04-06T10:10:58;16.70;48.20
69492;DHT22;56692;52.016;4.356;2023-04-06T10:13:26;16.80;48.30
69492;DHT22;56692;52.016;4.356;2023-04-06T10:15:52;16.90;48.00
69492;DHT22;56692;52.016;4.356;2023-04-06T10:18:19;16.80;48.00
69492;DHT22;56692;52.016;4.356;2023-04-06T10:21:00;16.80;48.30
69492;DHT22;56692;52.016;4.356;2023-04-06T10:23:31;16.70;48.10
69492;DHT22;56692;52.016;4.356;2023-04-06T10:25:59;16.70;48.30
69492;DHT22;56692;52.016;4.356;2023-04-06T10:28:30;16.60;48.60
69492;DHT22;56692;52.016;4.356;2023-04-06T10:31:00;16.60;48.70
69492;DHT22;56692;52.016;4.356;2023-04-06T10:33:27;16.60;48.70
69492;DHT22;56692;52.016;4.356;2023-04-06T10:35:53;16.60;48.30
69492;DHT22;56692;52.016;4.356;2023-04-06T10:38:20;16.60;48.30
69492;DHT22;56692;52.016;4.356;2023-04-06T10:40:48;16.60;48.80
69492;DHT22;56692;52.016;4.356;2023-04-06T10:43:22;16.60;48.70
69492;DHT22;56692;52.016;4.356;2023-04-06T10:45:59;16.60;48.80
69492;DHT22;56692;52.016;4.356;2023-04-06T10:48:39;16.60;49.10
69492;DHT22;56692;52.016;4.356;2023-04-06T10:51:16;16.60;49.20
69492;DHT22;56692;52.016;4.356;2023-04-06T10:53:43;16.60;49.20
69492;DHT22;56692;52.016;4.356;2023-04-06T10:56:11;16.60;49.20
69492;DHT22;56692;52.016;4.356;2023-04-06T10:58:38;16.60;49.30
69492;DHT22;56692;52.016;4.356;2023-04-06T11:01:04;16.70;49.00
69492;DHT22;56692;52.016;4.356;2023-04-06T11:03:31;16.80;49.10
69492;DHT22;56692;52.016;4.356;2023-04-06T11:05:57;16.80;48.90
69492;DHT22;56692;52.016;4.356;2023-04-06T11:08:33;16.90;48.90
69492;DHT22;56692;52.016;4.356;2023-04-06T11:14:04;17.00;48.80
69492;DHT22;56692;52.016;4.356;2023-04-06T11:16:31;17.10;48.80
69492;DHT22;56692;52.016;4.356;2023-04-06T11:19:02;17.10;48.80
69492;DHT22;56692;52.016;4.356;2023-04-06T11:21:39;17.20;48.70
69492;DHT22;56692;52.016;4.356;2023-04-06T11:24:09;17.20;48.70
69492;DHT22;56692;52.016;4.356;2023-04-06T11:26:57;17.30;48.60
69492;DHT22;56692;52.016;4.356;2023-04-06T11:29:26;17.40;48.60
69492;DHT22;56692;52.016;4.356;2023-04-06T11:31:53;17.40;48.60
69492;DHT22;56692;52.016;4.356;2023-04-06T11:34:21;17.40;48.60
69492;DHT22;56692;52.016;4.356;2023-04-06T11:36:49;17.50;48.50
69492;DHT22;56692;52.016;4.356;2023-04-06T11:39:22;17.50;48.50
69492;DHT22;56692;52.016;4.356;2023-04-06T11:41:58;17.60;48.50
69492;DHT22;56692;52.016;4.356;2023-04-06T11:47:00;17.60;48.40
69492;DHT22;56692;52.016;4.356;2023-04-06T11:49:27;17.70;48.40
69492;DHT22;56692;52.016;4.356;2023-04-06T11:51:54;17.70;48.40
69492;DHT22;56692;52.016;4.356;2023-04-06T11:54:50;17.80;48.30
69492;DHT22;56692;52.016;4.356;2023-04-06T11:57:16;17.80;48.30
69492;DHT22;56692;52.016;4.356;2023-04-06T11:59:43;17.90;48.30
69492;DHT22;56692;52.016;4.356;2023-04-06T12:02:09;17.90;48.20
69492;DHT22;56692;52.016;4.356;2023-04-06T12:04:35;17.90;48.20
69492;DHT22;56692;52.016;4.356;2023-04-06T12:07:00;18.00;48.20
69492;DHT22;56692;52.016;4.356;2023-04-06T12:09:26;18.00;48.20
69492;DHT22;56692;52.016;4.356;2023-04-06T12:11:52;18.00;48.20
69492;DHT22;56692;52.016;4.356;2023-04-06T12:14:18;18.10;48.20
69492;DHT22;56692;52.016;4.356;2023-04-06T12:16:44;18.10;48.10
69492;DHT22;56692;52.016;4.356;2023-04-06T12:19:09;18.20;48.10
69492;DHT22;56692;52.016;4.356;2023-04-06T12:21:35;18.20;48.10
69492;DHT22;56692;52.016;4.356;2023-04-06T12:24:03;18.20;48.10
69492;DHT22;56692;52.016;4.356;2023-04-06T12:26:29;18.30;48.10
69492;DHT22;56692;52.016;4.356;2023-04-06T12:28:56;18.30;48.10
69492;DHT22;56692;52.016;4.356;2023-04-06T12:31:22;18.30;48.00
69492;DHT22;56692;52.016;4.356;2023-04-06T12:33:51;18.30;48.00
69492;DHT22;56692;52.016;4.356;2023-04-06T12:36:19;18.40;48.00
69492;DHT22;56692;52.016;4.356;2023-04-06T12:38:47;18.40;48.00
69492;DHT22;56692;52.016;4.356;2023-04-06T12:41:13;18.40;47.90
69492;DHT22;56692;52.016;4.356;2023-04-06T12:43:42;18.50;47.90
69492;DHT22;56692;52.016;4.356;2023-04-06T12:46:08;18.50;47.90
69492;DHT22;56692;52.016;4.356;2023-04-06T12:48:34;18.50;47.90
69492;DHT22;56692;52.016;4.356;2023-04-06T12:51:05;18.60;47.90
69492;DHT22;56692;52.016;4.356;2023-04-06T12:53:32;18.60;47.90
69492;DHT22;56692;52.016;4.356;2023-04-06T12:55:58;18.60;47.80
69492;DHT22;56692;52.016;4.356;2023-04-06T12:58:24;18.70;47.90
69492;DHT22;56692;52.016;4.356;2023-04-06T13:00:52;18.70;47.80
69492;DHT22;56692;52.016;4.356;2023-04-06T13:03:18;18.80;47.70
69492;DHT22;56692;52.016;4.356;2023-04-06T13:05:49;18.80;47.80
69492;DHT22;56692;52.016;4.356;2023-04-06T13:08:15;18.80;47.70
69492;DHT22;56692;52.016;4.356;2023-04-06T13:10:48;18.80;47.70
69492;DHT22;56692;52.016;4.356;2023-04-06T13:13:14;18.90;47.70
69492;DHT22;56692;52.016;4.356;2023-04-06T13:15:41;18.90;47.90
69492;DHT22;56692;52.016;4.356;2023-04-06T13:18:07;18.90;47.80
69492;DHT22;56692;52.016;4.356;2023-04-06T13:20:33;19.00;47.80
69492;DHT22;56692;52.016;4.356;2023-04-06T13:22:59;19.00;47.80
69492;DHT22;56692;52.016;4.356;2023-04-06T13:25:25;19.00;47.70
69492;DHT22;56692;52.016;4.356;2023-04-06T13:27:51;19.00;47.70
69492;DHT22;56692;52.016;4.356;2023-04-06T13:30:17;19.10;47.70
69492;DHT22;56692;52.016;4.356;2023-04-06T13:32:43;19.00;47.70
69492;DHT22;56692;52.016;4.356;2023-04-06T13:35:09;19.00;47.70
69492;DHT22;56692;52.016;4.356;2023-04-06T13:37:35;19.00;47.80
69492;DHT22;56692;52.016;4.356;2023-04-06T13:40:05;18.90;48.00
69492;DHT22;56692;52.016;4.356;2023-04-06T13:42:31;18.80;48.10
69492;DHT22;56692;52.016;4.356;2023-04-06T13:44:58;18.80;48.30
69492;DHT22;56692;52.016;4.356;2023-04-06T13:47:23;18.70;48.40
69492;DHT22;56692;52.016;4.356;2023-04-06T13:49:55;18.70;48.40
69492;DHT22;56692;52.016;4.356;2023-04-06T13:52:21;18.60;48.20
69492;DHT22;56692;52.016;4.356;2023-04-06T13:54:48;18.60;48.40
69492;DHT22;56692;52.016;4.356;2023-04-06T13:57:14;18.60;48.40
69492;DHT22;56692;52.016;4.356;2023-04-06T13:59:39;18.50;48.60
69492;DHT22;56692;52.016;4.356;2023-04-06T14:02:07;18.50;48.70
69492;DHT22;56692;52.016;4.356;2023-04-06T14:04:34;18.50;48.70
69492;DHT22;56692;52.016;4.356;2023-04-06T14:07:01;18.40;48.80
69492;DHT22;56692;52.016;4.356;2023-04-06T14:09:28;18.40;48.80
69492;DHT22;56692;52.016;4.356;2023-04-06T14:11:54;18.40;48.80
69492;DHT22;56692;52.016;4.356;2023-04-06T14:14:20;18.40;48.80
69492;DHT22;56692;52.016;4.356;2023-04-06T14:16:47;18.40;48.80
69492;DHT22;56692;52.016;4.356;2023-04-06T14:19:14;18.30;48.80
69492;DHT22;56692;52.016;4.356;2023-04-06T14:21:41;18.30;48.90
69492;DHT22;56692;52.016;4.356;2023-04-06T14:24:09;18.30;49.10
69492;DHT22;56692;52.016;4.356;2023-04-06T14:26:35;18.30;49.00
69492;DHT22;56692;52.016;4.356;2023-04-06T14:29:01;18.30;49.10
69492;DHT22;56692;52.016;4.356;2023-04-06T14:31:27;18.30;49.20
69492;DHT22;56692;52.016;4.356;2023-04-06T14:33:53;18.30;49.30
69492;DHT22;56692;52.016;4.356;2023-04-06T14:36:19;18.30;49.40
69492;DHT22;56692;52.016;4.356;2023-04-06T14:38:45;18.30;49.50
69492;DHT22;56692;52.016;4.356;2023-04-06T14:41:18;18.30;49.40
69492;DHT22;56692;52.016;4.356;2023-04-06T14:43:46;18.40;49.30
69492;DHT22;56692;52.016;4.356;2023-04-06T14:46:12;18.40;49.30
69492;DHT22;56692;52.016;4.356;2023-04-06T14:48:38;18.50;49.30
69492;DHT22;56692;52.016;4.356;2023-04-06T14:51:04;18.60;49.20
69492;DHT22;56692;52.016;4.356;2023-04-06T14:53:30;18.70;49.00
69492;DHT22;56692;52.016;4.356;2023-04-06T14:55:56;18.70;49.00
69492;DHT22;56692;52.016;4.356;2023-04-06T14:58:23;18.70;48.80
69492;DHT22;56692;52.016;4.356;2023-04-06T15:00:49;18.80;48.80
69492;DHT22;56692;52.016;4.356;2023-04-06T15:03:20;18.80;48.80
69492;DHT22;56692;52.016;4.356;2023-04-06T15:05:46;18.90;48.80
69492;DHT22;56692;52.016;4.356;2023-04-06T15:08:12;18.90;48.70
69492;DHT22;56692;52.016;4.356;2023-04-06T15:10:40;18.90;48.70
69492;DHT22;56692;52.016;4.356;2023-04-06T15:13:06;19.00;48.70
69492;DHT22;56692;52.016;4.356;2023-04-06T15:15:32;19.00;48.60
69492;DHT22;56692;52.016;4.356;2023-04-06T15:17:57;19.00;48.60
69492;DHT22;56692;52.016;4.356;2023-04-06T15:20:23;19.10;48.60
69492;DHT22;56692;52.016;4.356;2023-04-06T15:22:49;19.10;48.50
69492;DHT22;56692;52.016;4.356;2023-04-06T15:25:14;19.10;48.50
69492;DHT22;56692;52.016;4.356;2023-04-06T15:27:41;19.10;48.50
69492;DHT22;56692;52.016;4.356;2023-04-06T15:30:06;19.20;48.50
69492;DHT22;56692;52.016;4.356;2023-04-06T15:32:32;19.20;48.50
69492;DHT22;56692;52.016;4.356;2023-04-06T15:34:59;19.20;48.50
69492;DHT22;56692;52.016;4.356;2023-04-06T15:37:25;19.30;48.30